Terminal Aerodrome Forecast
Issued by NWS Melbourne, FL

Home | Current Version | Previous Version | Text Only | Print | Product List | Glossary On
Versions: 1 2 3 4 5 6 7 8 9 10 11 12 13 14 15 16 17 18 19 20 21 22 23 24 25 26 27 28
000
FTUS42 KMLB 242106 AAA
TAFMCO
TAF AMD
KMCO 242106Z 2421/2518 16008KT P6SM BKN050 BKN250
     FM242300 14008KT P6SM VCSH SCT040 BKN080 BKN250
     FM250100 15003KT P6SM FEW025 SCT250
     FM251300 17006KT P6SM SCT025 SCT080=

USA.gov is the U.S. government's official web portal to all federal, state and local government web resources and services.